Stebbins, AK (99671)

7:22 AM AKST on December 04, 2016 (GMT -0900)
ASOS_HFM | | Change Station

Elev 91 ft 63.48 °N, 162.12 °W | Updated 52 minutes ago

Clear
Clear
-6 °F
Feels Like -22 °F
N
9
Wind Variable Wind from East
Gusts 0.0 mph

Today
High -- | Low -- °F
--% Chance of Precip.
Yesterday
High -- | Low -- °F
Precip. -- in
Pressure 30.67 in
Visibility 10.0 miles
Clouds Clear
Windchill -22 °F
Dew Point -9 °F
Humidity 84%
Rainfall in
Snow Depth Not available.
11:08 AM 4:10 PM
Waxing Crescent, 23% visible
METAR PAUN 041616Z 05015KT 10SM CLR M23/M31 A3067 RMK AO1
Pressure 30.67 in
Visibility 10.0 miles
Clouds Clear
Windchill -22 °F
Dew Point -9 °F
Humidity 84%
Rainfall in
Snow Depth Not available.
11:08 AM 4:10 PM
Waxing Crescent, 23% visible
METAR PAUN 041616Z 05015KT 10SM CLR M23/M31 A3067 RMK AO1

10-Day Weather Forecast

Almanac

Astronomy

Dec. 04, 2016 Rise Set
Actual Time
Civil Twilight
Nautical Twilight
Astronomical Twilight
Moon
Length of Visible Light
Length of Day
Tomorrow will be .
, % of the Moon is Illuminated

Today's Extremes

State Highs State Lows

Community

WunderPhotos

Upload Photos

1,955,617 photos uploaded!

WunderBlog® & News

Nearby

Air Quality

  Air Quality AQ Index Pollutant
Not available.

Snow Depth

Station Depth Elevation

Earthquake Activity

City Distance Mag. Time & Date
Minimum magnitude displayed is 2.5.

Coastal Water Temperatures

Place Temperature

Stations

Nearby Weather Stations

Station Location Temp. Windchill Dew Point Humidity Wind Precip. Elev Updated Type
                   

Watches & Warnings

There are currently no watches in effect.